sensor_id;sensor_type;location;lat;lon;timestamp;pressure;altitude;pressure_sealevel;temperature;humidity
8061;BME280;4073;42.626;25.386;2023-07-16T00:00:11;97460.09;;;24.75;100.00
8061;BME280;4073;42.626;25.386;2023-07-16T00:02:37;97467.97;;;24.76;100.00
8061;BME280;4073;42.626;25.386;2023-07-16T00:05:03;97460.81;;;24.56;100.00
8061;BME280;4073;42.626;25.386;2023-07-16T00:07:29;97453.06;;;24.58;100.00
8061;BME280;4073;42.626;25.386;2023-07-16T00:09:54;97468.16;;;24.68;100.00
8061;BME280;4073;42.626;25.386;2023-07-16T00:12:20;97466.94;;;24.65;100.00
8061;BME280;4073;42.626;25.386;2023-07-16T00:14:45;97467.69;;;24.66;100.00
8061;BME280;4073;42.626;25.386;2023-07-16T00:17:11;97444.50;;;24.60;100.00
8061;BME280;4073;42.626;25.386;2023-07-16T00:19:36;97457.38;;;24.59;100.00
8061;BME280;4073;42.626;25.386;2023-07-16T00:22:02;97463.25;;;24.61;100.00
8061;BME280;4073;42.626;25.386;2023-07-16T00:24:27;97460.28;;;24.51;100.00
8061;BME280;4073;42.626;25.386;2023-07-16T00:26:53;97461.97;;;24.40;100.00
8061;BME280;4073;42.626;25.386;2023-07-16T00:29:18;97444.63;;;24.17;100.00
8061;BME280;4073;42.626;25.386;2023-07-16T00:31:44;97461.19;;;24.24;100.00
8061;BME280;4073;42.626;25.386;2023-07-16T00:34:09;97465.25;;;24.14;100.00
8061;BME280;4073;42.626;25.386;2023-07-16T00:36:35;97466.72;;;24.12;100.00
8061;BME280;4073;42.626;25.386;2023-07-16T00:39:01;97466.00;;;23.99;100.00
8061;BME280;4073;42.626;25.386;2023-07-16T00:41:26;97468.72;;;23.99;100.00
8061;BME280;4073;42.626;25.386;2023-07-16T00:43:51;97452.66;;;23.82;100.00
8061;BME280;4073;42.626;25.386;2023-07-16T00:46:19;97453.81;;;23.81;100.00
8061;BME280;4073;42.626;25.386;2023-07-16T00:48:44;97452.66;;;23.82;100.00
8061;BME280;4073;42.626;25.386;2023-07-16T00:51:10;97440.16;;;23.81;100.00
8061;BME280;4073;42.626;25.386;2023-07-16T00:53:36;97446.84;;;23.84;100.00
8061;BME280;4073;42.626;25.386;2023-07-16T00:56:01;97446.41;;;23.82;100.00
8061;BME280;4073;42.626;25.386;2023-07-16T00:58:27;97446.41;;;23.82;100.00
8061;BME280;4073;42.626;25.386;2023-07-16T01:00:52;97444.38;;;23.79;100.00
8061;BME280;4073;42.626;25.386;2023-07-16T01:03:18;97437.75;;;23.64;100.00
8061;BME280;4073;42.626;25.386;2023-07-16T01:05:59;97450.69;;;23.67;100.00
8061;BME280;4073;42.626;25.386;2023-07-16T01:11:09;97430.88;;;23.55;100.00
8061;BME280;4073;42.626;25.386;2023-07-16T01:13:35;97436.31;;;23.55;100.00
8061;BME280;4073;42.626;25.386;2023-07-16T01:16:01;97436.22;;;23.51;100.00
8061;BME280;4073;42.626;25.386;2023-07-16T01:18:27;97441.78;;;23.55;100.00
8061;BME280;4073;42.626;25.386;2023-07-16T01:20:52;97432.47;;;23.44;100.00
8061;BME280;4073;42.626;25.386;2023-07-16T01:23:39;97442.50;;;23.40;100.00
8061;BME280;4073;42.626;25.386;2023-07-16T01:31:28;97437.03;;;23.00;100.00
8061;BME280;4073;42.626;25.386;2023-07-16T01:33:54;97440.25;;;23.02;100.00
8061;BME280;4073;42.626;25.386;2023-07-16T01:36:22;97434.81;;;22.90;100.00
8061;BME280;4073;42.626;25.386;2023-07-16T01:38:49;97438.53;;;22.98;100.00
8061;BME280;4073;42.626;25.386;2023-07-16T01:41:14;97443.88;;;22.94;100.00
8061;BME280;4073;42.626;25.386;2023-07-16T01:43:40;97443.44;;;22.92;100.00
8061;BME280;4073;42.626;25.386;2023-07-16T01:46:05;97448.09;;;22.92;100.00
8061;BME280;4073;42.626;25.386;2023-07-16T01:48:33;97445.25;;;22.88;100.00
8061;BME280;4073;42.626;25.386;2023-07-16T01:50:59;97445.63;;;22.87;100.00
8061;BME280;4073;42.626;25.386;2023-07-16T01:53:25;97441.97;;;22.83;100.00
8061;BME280;4073;42.626;25.386;2023-07-16T01:55:50;97443.56;;;22.84;100.00
8061;BME280;4073;42.626;25.386;2023-07-16T01:58:16;97431.75;;;22.79;100.00
8061;BME280;4073;42.626;25.386;2023-07-16T02:00:42;97437.19;;;22.79;100.00
8061;BME280;4073;42.626;25.386;2023-07-16T02:03:07;97436.16;;;22.84;100.00
8061;BME280;4073;42.626;25.386;2023-07-16T02:05:32;97429.94;;;22.84;100.00
8061;BME280;4073;42.626;25.386;2023-07-16T02:07:58;97444.25;;;22.81;100.00
8061;BME280;4073;42.626;25.386;2023-07-16T02:10:23;97432.34;;;22.73;100.00
8061;BME280;4073;42.626;25.386;2023-07-16T02:12:49;97438.69;;;22.77;100.00
8061;BME280;4073;42.626;25.386;2023-07-16T02:15:14;97442.44;;;22.72;100.00
8061;BME280;4073;42.626;25.386;2023-07-16T02:17:41;97436.63;;;22.74;100.00
8061;BME280;4073;42.626;25.386;2023-07-16T02:20:07;97426.31;;;22.67;100.00
8061;BME280;4073;42.626;25.386;2023-07-16T02:22:34;97434.59;;;22.71;100.00
8061;BME280;4073;42.626;25.386;2023-07-16T02:25:00;97436.41;;;22.67;100.00
8061;BME280;4073;42.626;25.386;2023-07-16T02:27:26;97430.75;;;22.60;100.00
8061;BME280;4073;42.626;25.386;2023-07-16T02:29:51;97434.50;;;22.55;100.00
8061;BME280;4073;42.626;25.386;2023-07-16T02:32:16;97432.59;;;22.56;100.00
8061;BME280;4073;42.626;25.386;2023-07-16T02:34:42;97438.03;;;22.56;100.00
8061;BME280;4073;42.626;25.386;2023-07-16T02:37:07;97439.72;;;22.48;100.00
8061;BME280;4073;42.626;25.386;2023-07-16T02:39:33;97440.84;;;22.47;100.00
8061;BME280;4073;42.626;25.386;2023-07-16T02:41:59;97440.97;;;22.39;100.00
8061;BME280;4073;42.626;25.386;2023-07-16T02:44:24;97440.28;;;22.30;100.00
8061;BME280;4073;42.626;25.386;2023-07-16T02:46:50;97435.28;;;22.20;100.00
8061;BME280;4073;42.626;25.386;2023-07-16T02:49:16;97442.00;;;22.22;100.00
8061;BME280;4073;42.626;25.386;2023-07-16T02:51:41;97443.09;;;22.21;100.00
8061;BME280;4073;42.626;25.386;2023-07-16T02:54:07;97434.94;;;22.09;100.00
8061;BME280;4073;42.626;25.386;2023-07-16T02:56:32;97446.16;;;22.08;100.00
8061;BME280;4073;42.626;25.386;2023-07-16T02:58:58;97449.34;;;21.98;100.00
8061;BME280;4073;42.626;25.386;2023-07-16T03:01:23;97453.97;;;21.85;100.00
8061;BME280;4073;42.626;25.386;2023-07-16T03:03:49;97455.50;;;21.74;100.00
8061;BME280;4073;42.626;25.386;2023-07-16T03:06:14;97446.41;;;21.70;100.00
8061;BME280;4073;42.626;25.386;2023-07-16T03:08:40;97446.91;;;21.72;100.00
8061;BME280;4073;42.626;25.386;2023-07-16T03:11:05;97453.38;;;21.80;100.00
8061;BME280;4073;42.626;25.386;2023-07-16T03:13:31;97449.53;;;21.81;100.00
8061;BME280;4073;42.626;25.386;2023-07-16T03:15:56;97462.22;;;21.89;100.00
8061;BME280;4073;42.626;25.386;2023-07-16T03:18:22;97448.28;;;21.78;100.00
8061;BME280;4073;42.626;25.386;2023-07-16T03:20:47;97466.56;;;21.90;100.00
8061;BME280;4073;42.626;25.386;2023-07-16T03:23:13;97469.28;;;21.90;100.00
8061;BME280;4073;42.626;25.386;2023-07-16T03:25:38;97466.34;;;21.95;100.00
8061;BME280;4073;42.626;25.386;2023-07-16T03:28:04;97464.09;;;21.97;100.00
8061;BME280;4073;42.626;25.386;2023-07-16T03:30:32;97472.50;;;22.04;100.00
8061;BME280;4073;42.626;25.386;2023-07-16T03:32:58;97468.38;;;22.10;100.00
8061;BME280;4073;42.626;25.386;2023-07-16T03:35:25;97455.81;;;22.05;100.00
8061;BME280;4073;42.626;25.386;2023-07-16T03:37:50;97459.88;;;22.11;100.00
8061;BME280;4073;42.626;25.386;2023-07-16T03:40:18;97464.13;;;22.21;100.00
8061;BME280;4073;42.626;25.386;2023-07-16T03:42:44;97464.56;;;22.23;100.00
8061;BME280;4073;42.626;25.386;2023-07-16T03:45:10;97468.88;;;22.24;100.00
8061;BME280;4073;42.626;25.386;2023-07-16T03:47:36;97470.91;;;22.27;100.00
8061;BME280;4073;42.626;25.386;2023-07-16T03:50:02;97473.75;;;22.30;100.00
8061;BME280;4073;42.626;25.386;2023-07-16T03:52:28;97465.81;;;22.37;100.00
8061;BME280;4073;42.626;25.386;2023-07-16T03:54:54;97461.84;;;22.35;100.00
8061;BME280;4073;42.626;25.386;2023-07-16T03:57:20;97469.91;;;22.43;100.00
8061;BME280;4073;42.626;25.386;2023-07-16T03:59:45;97459.34;;;22.42;100.00
8061;BME280;4073;42.626;25.386;2023-07-16T04:02:11;97473.53;;;22.47;100.00
8061;BME280;4073;42.626;25.386;2023-07-16T04:04:36;97460.94;;;22.43;100.00
8061;BME280;4073;42.626;25.386;2023-07-16T04:07:02;97469.38;;;22.50;100.00
8061;BME280;4073;42.626;25.386;2023-07-16T04:09:27;97473.06;;;22.45;100.00
8061;BME280;4073;42.626;25.386;2023-07-16T04:11:53;97444.03;;;22.37;100.00
8061;BME280;4073;42.626;25.386;2023-07-16T04:14:18;97473.00;;;22.54;100.00
8061;BME280;4073;42.626;25.386;2023-07-16T04:16:44;97470.41;;;22.57;100.00
8061;BME280;4073;42.626;25.386;2023-07-16T04:19:09;97465.50;;;22.63;100.00
8061;BME280;4073;42.626;25.386;2023-07-16T04:21:35;97470.03;;;22.71;100.00
8061;BME280;4073;42.626;25.386;2023-07-16T04:24:04;97481.41;;;22.73;100.00
8061;BME280;4073;42.626;25.386;2023-07-16T04:26:30;97475.59;;;22.74;100.00
8061;BME280;4073;42.626;25.386;2023-07-16T04:28:56;97473.78;;;22.78;100.00
8061;BME280;4073;42.626;25.386;2023-07-16T04:31:22;97469.81;;;22.76;100.00
8061;BME280;4073;42.626;25.386;2023-07-16T04:33:48;97483.41;;;23.00;100.00
8061;BME280;4073;42.626;25.386;2023-07-16T04:36:13;97486.47;;;23.11;100.00
8061;BME280;4073;42.626;25.386;2023-07-16T04:38:39;97481.31;;;23.21;100.00
8061;BME280;4073;42.626;25.386;2023-07-16T04:41:04;97485.50;;;23.31;100.00
8061;BME280;4073;42.626;25.386;2023-07-16T04:43:29;97483.91;;;23.42;100.00
8061;BME280;4073;42.626;25.386;2023-07-16T04:45:55;97486.13;;;23.52;100.00
8061;BME280;4073;42.626;25.386;2023-07-16T04:48:20;97473.91;;;23.61;100.00
8061;BME280;4073;42.626;25.386;2023-07-16T04:50:46;97486.59;;;23.69;100.00
8061;BME280;4073;42.626;25.386;2023-07-16T04:53:11;97479.88;;;23.79;100.00
8061;BME280;4073;42.626;25.386;2023-07-16T04:55:37;97492.28;;;23.92;100.00
8061;BME280;4073;42.626;25.386;2023-07-16T04:58:04;97471.38;;;23.96;100.00
8061;BME280;4073;42.626;25.386;2023-07-16T05:00:31;97477.63;;;24.12;100.00
8061;BME280;4073;42.626;25.386;2023-07-16T05:02:57;97475.53;;;24.21;100.00
8061;BME280;4073;42.626;25.386;2023-07-16T05:05:22;97489.56;;;24.35;100.00
8061;BME280;4073;42.626;25.386;2023-07-16T05:07:48;97482.41;;;24.46;100.00
8061;BME280;4073;42.626;25.386;2023-07-16T05:10:13;97488.59;;;24.58;100.00
8061;BME280;4073;42.626;25.386;2023-07-16T05:12:39;97491.19;;;24.67;100.00
8061;BME280;4073;42.626;25.386;2023-07-16T05:15:04;97488.66;;;24.77;100.00
8061;BME280;4073;42.626;25.386;2023-07-16T05:17:30;97490.97;;;24.91;100.00
8061;BME280;4073;42.626;25.386;2023-07-16T05:19:55;97484.50;;;24.99;100.00
8061;BME280;4073;42.626;25.386;2023-07-16T05:22:21;97485.50;;;25.10;100.00
8061;BME280;4073;42.626;25.386;2023-07-16T05:24:46;97480.19;;;25.17;100.00
8061;BME280;4073;42.626;25.386;2023-07-16T05:27:12;97496.16;;;25.31;100.00
8061;BME280;4073;42.626;25.386;2023-07-16T05:29:37;97481.94;;;25.25;100.00
8061;BME280;4073;42.626;25.386;2023-07-16T05:32:03;97489.69;;;25.39;100.00
8061;BME280;4073;42.626;25.386;2023-07-16T05:34:29;97494.94;;;25.47;100.00
8061;BME280;4073;42.626;25.386;2023-07-16T05:36:55;97489.25;;;25.56;100.00
8061;BME280;4073;42.626;25.386;2023-07-16T05:39:21;97494.28;;;25.73;100.00
8061;BME280;4073;42.626;25.386;2023-07-16T05:41:47;97499.69;;;25.88;100.00
8061;BME280;4073;42.626;25.386;2023-07-16T05:44:13;97496.81;;;26.00;100.00
8061;BME280;4073;42.626;25.386;2023-07-16T05:46:39;97501.03;;;26.17;100.00
8061;BME280;4073;42.626;25.386;2023-07-16T05:49:04;97498.97;;;26.33;100.00
8061;BME280;4073;42.626;25.386;2023-07-16T05:51:30;97504.81;;;26.54;100.00
8061;BME280;4073;42.626;25.386;2023-07-16T05:53:55;97501.22;;;26.72;100.00
8061;BME280;4073;42.626;25.386;2023-07-16T05:56:21;97491.91;;;27.03;100.00
8061;BME280;4073;42.626;25.386;2023-07-16T05:58:46;97501.31;;;27.28;99.33
8061;BME280;4073;42.626;25.386;2023-07-16T06:01:12;97500.09;;;27.55;97.38
8061;BME280;4073;42.626;25.386;2023-07-16T06:03:37;97490.97;;;27.81;92.70
8061;BME280;4073;42.626;25.386;2023-07-16T06:06:03;97507.03;;;28.08;90.72
8061;BME280;4073;42.626;25.386;2023-07-16T06:08:28;97507.94;;;28.23;89.33
8061;BME280;4073;42.626;25.386;2023-07-16T06:10:53;97499.00;;;28.33;87.21
8061;BME280;4073;42.626;25.386;2023-07-16T06:13:19;97500.75;;;28.48;87.02
8061;BME280;4073;42.626;25.386;2023-07-16T06:15:46;97506.44;;;28.69;84.75
8061;BME280;4073;42.626;25.386;2023-07-16T06:18:12;97501.03;;;28.83;79.93
8061;BME280;4073;42.626;25.386;2023-07-16T06:20:37;97500.44;;;29.03;78.22
8061;BME280;4073;42.626;25.386;2023-07-16T06:23:03;97514.34;;;29.28;76.67
8061;BME280;4073;42.626;25.386;2023-07-16T06:25:29;97512.09;;;29.47;74.13
8061;BME280;4073;42.626;25.386;2023-07-16T06:27:54;97505.53;;;29.69;71.82
8061;BME280;4073;42.626;25.386;2023-07-16T06:30:20;97513.84;;;29.80;66.46
8061;BME280;4073;42.626;25.386;2023-07-16T06:32:46;97511.50;;;29.86;59.89
8061;BME280;4073;42.626;25.386;2023-07-16T06:35:11;97513.13;;;30.01;61.69
8061;BME280;4073;42.626;25.386;2023-07-16T06:37:36;97506.13;;;30.17;58.59
8061;BME280;4073;42.626;25.386;2023-07-16T06:40:02;97506.91;;;30.32;57.12
8061;BME280;4073;42.626;25.386;2023-07-16T06:42:29;97514.44;;;30.52;53.29
8061;BME280;4073;42.626;25.386;2023-07-16T06:44:54;97512.91;;;30.72;50.32
8061;BME280;4073;42.626;25.386;2023-07-16T06:47:20;97506.59;;;30.89;50.01
8061;BME280;4073;42.626;25.386;2023-07-16T06:49:45;97503.38;;;31.08;48.78
8061;BME280;4073;42.626;25.386;2023-07-16T06:52:23;97513.25;;;31.27;48.81
8061;BME280;4073;42.626;25.386;2023-07-16T06:54:53;97483.66;;;31.27;48.32
8061;BME280;4073;42.626;25.386;2023-07-16T06:57:19;97496.66;;;31.37;49.13
8061;BME280;4073;42.626;25.386;2023-07-16T06:59:44;97488.34;;;31.44;48.64
8061;BME280;4073;42.626;25.386;2023-07-16T07:02:11;97492.66;;;31.52;48.83
8061;BME280;4073;42.626;25.386;2023-07-16T07:04:37;97503.25;;;31.71;47.40
8061;BME280;4073;42.626;25.386;2023-07-16T07:07:03;97490.59;;;31.81;49.24
8061;BME280;4073;42.626;25.386;2023-07-16T07:09:28;97492.03;;;32.10;48.15
8061;BME280;4073;42.626;25.386;2023-07-16T07:11:54;97495.97;;;32.09;47.17
8061;BME280;4073;42.626;25.386;2023-07-16T07:14:19;97492.06;;;32.03;48.12
8061;BME280;4073;42.626;25.386;2023-07-16T07:16:45;97498.41;;;32.00;47.35
8061;BME280;4073;42.626;25.386;2023-07-16T07:19:10;97504.69;;;32.00;47.95
8061;BME280;4073;42.626;25.386;2023-07-16T07:21:35;97502.25;;;32.17;47.57
8061;BME280;4073;42.626;25.386;2023-07-16T07:24:01;97501.75;;;32.36;47.07
8061;BME280;4073;42.626;25.386;2023-07-16T07:26:27;97491.06;;;32.38;46.02
8061;BME280;4073;42.626;25.386;2023-07-16T07:28:52;97494.94;;;32.51;45.96
8061;BME280;4073;42.626;25.386;2023-07-16T07:31:18;97491.78;;;32.49;46.65
8061;BME280;4073;42.626;25.386;2023-07-16T07:33:44;97496.34;;;32.73;46.98
8061;BME280;4073;42.626;25.386;2023-07-16T07:36:09;97487.06;;;32.93;46.02
8061;BME280;4073;42.626;25.386;2023-07-16T07:38:34;97489.38;;;33.02;44.89
8061;BME280;4073;42.626;25.386;2023-07-16T07:41:00;97491.31;;;33.08;45.65
8061;BME280;4073;42.626;25.386;2023-07-16T07:43:26;97479.91;;;32.99;45.37
8061;BME280;4073;42.626;25.386;2023-07-16T07:45:52;97497.06;;;32.84;45.41
8061;BME280;4073;42.626;25.386;2023-07-16T07:48:18;97488.66;;;32.94;44.42
8061;BME280;4073;42.626;25.386;2023-07-16T07:50:43;97490.25;;;32.92;45.35
8061;BME280;4073;42.626;25.386;2023-07-16T07:53:09;97490.34;;;32.81;45.55
8061;BME280;4073;42.626;25.386;2023-07-16T07:55:34;97487.31;;;32.65;46.22
8061;BME280;4073;42.626;25.386;2023-07-16T07:58:00;97491.09;;;32.82;45.25
8061;BME280;4073;42.626;25.386;2023-07-16T08:00:26;97486.78;;;32.81;45.30
8061;BME280;4073;42.626;25.386;2023-07-16T08:02:51;97496.47;;;33.06;44.87
8061;BME280;4073;42.626;25.386;2023-07-16T08:05:17;97496.63;;;33.29;43.35
8061;BME280;4073;42.626;25.386;2023-07-16T08:07:42;97495.50;;;33.23;42.14
8061;BME280;4073;42.626;25.386;2023-07-16T08:10:08;97493.38;;;33.38;42.00
8061;BME280;4073;42.626;25.386;2023-07-16T08:12:33;97493.63;;;33.50;41.96
8061;BME280;4073;42.626;25.386;2023-07-16T08:14:59;97496.00;;;33.52;42.53
8061;BME280;4073;42.626;25.386;2023-07-16T08:17:25;97501.75;;;33.68;42.18
8061;BME280;4073;42.626;25.386;2023-07-16T08:19:51;97497.94;;;33.55;41.70
8061;BME280;4073;42.626;25.386;2023-07-16T08:22:17;97504.81;;;33.43;42.48
8061;BME280;4073;42.626;25.386;2023-07-16T08:24:42;97502.84;;;33.40;42.75
8061;BME280;4073;42.626;25.386;2023-07-16T08:27:07;97501.22;;;33.46;43.19
8061;BME280;4073;42.626;25.386;2023-07-16T08:29:35;97492.22;;;33.69;42.26
8061;BME280;4073;42.626;25.386;2023-07-16T08:32:01;97492.69;;;33.64;42.14
8061;BME280;4073;42.626;25.386;2023-07-16T08:34:27;97503.13;;;33.83;42.62
8061;BME280;4073;42.626;25.386;2023-07-16T08:36:54;97491.34;;;34.09;41.57
8061;BME280;4073;42.626;25.386;2023-07-16T08:39:19;97488.59;;;34.36;41.26
8061;BME280;4073;42.626;25.386;2023-07-16T08:41:46;97496.88;;;34.62;40.51
8061;BME280;4073;42.626;25.386;2023-07-16T08:44:12;97498.94;;;34.58;39.86
8061;BME280;4073;42.626;25.386;2023-07-16T08:46:39;97494.19;;;34.59;42.00
8061;BME280;4073;42.626;25.386;2023-07-16T08:49:07;97493.38;;;34.58;41.77
8061;BME280;4073;42.626;25.386;2023-07-16T08:51:34;97494.91;;;34.63;40.48
8061;BME280;4073;42.626;25.386;2023-07-16T08:53:59;97483.59;;;35.00;40.17
8061;BME280;4073;42.626;25.386;2023-07-16T08:56:25;97493.91;;;34.99;40.50
8061;BME280;4073;42.626;25.386;2023-07-16T08:58:54;97487.31;;;35.13;39.91
8061;BME280;4073;42.626;25.386;2023-07-16T09:01:20;97492.88;;;35.36;39.46
8061;BME280;4073;42.626;25.386;2023-07-16T09:03:46;97491.06;;;35.26;39.22
8061;BME280;4073;42.626;25.386;2023-07-16T09:06:11;97497.88;;;35.21;39.35
8061;BME280;4073;42.626;25.386;2023-07-16T09:08:37;97500.72;;;34.72;40.60
8061;BME280;4073;42.626;25.386;2023-07-16T09:11:02;97493.84;;;35.03;40.25
8061;BME280;4073;42.626;25.386;2023-07-16T09:13:29;97499.34;;;35.06;39.54
8061;BME280;4073;42.626;25.386;2023-07-16T09:15:56;97499.75;;;34.82;40.53
8061;BME280;4073;42.626;25.386;2023-07-16T09:18:26;97485.16;;;35.43;38.83
8061;BME280;4073;42.626;25.386;2023-07-16T09:20:56;97489.19;;;36.01;37.57
8061;BME280;4073;42.626;25.386;2023-07-16T09:23:24;97479.63;;;36.37;37.00
8061;BME280;4073;42.626;25.386;2023-07-16T09:25:51;97486.41;;;36.36;36.25
8061;BME280;4073;42.626;25.386;2023-07-16T09:28:18;97482.16;;;36.64;35.96
8061;BME280;4073;42.626;25.386;2023-07-16T09:30:44;97479.38;;;36.64;35.42
8061;BME280;4073;42.626;25.386;2023-07-16T09:33:17;97482.50;;;36.66;34.83
8061;BME280;4073;42.626;25.386;2023-07-16T09:35:43;97482.69;;;36.59;34.72
8061;BME280;4073;42.626;25.386;2023-07-16T09:38:10;97485.94;;;36.74;34.71
8061;BME280;4073;42.626;25.386;2023-07-16T09:40:39;97480.38;;;36.74;34.70
8061;BME280;4073;42.626;25.386;2023-07-16T09:43:08;97469.03;;;36.65;35.02
8061;BME280;4073;42.626;25.386;2023-07-16T09:45:34;97471.28;;;36.70;34.82
8061;BME280;4073;42.626;25.386;2023-07-16T09:47:59;97473.25;;;36.37;34.88
8061;BME280;4073;42.626;25.386;2023-07-16T09:50:28;97466.06;;;36.39;35.08
8061;BME280;4073;42.626;25.386;2023-07-16T09:52:56;97459.19;;;36.60;34.78
8061;BME280;4073;42.626;25.386;2023-07-16T09:55:23;97455.63;;;36.43;35.14
8061;BME280;4073;42.626;25.386;2023-07-16T09:57:50;97447.53;;;36.65;35.21
8061;BME280;4073;42.626;25.386;2023-07-16T10:00:18;97453.09;;;36.65;34.61
8061;BME280;4073;42.626;25.386;2023-07-16T10:02:46;97456.84;;;36.42;35.22
8061;BME280;4073;42.626;25.386;2023-07-16T10:05:17;97461.09;;;36.11;35.29
8061;BME280;4073;42.626;25.386;2023-07-16T10:07:43;97447.59;;;35.94;35.51
8061;BME280;4073;42.626;25.386;2023-07-16T10:10:14;97454.31;;;35.77;36.12
8061;BME280;4073;42.626;25.386;2023-07-16T10:12:43;97448.03;;;35.73;36.21
8061;BME280;4073;42.626;25.386;2023-07-16T10:15:25;97443.25;;;35.73;36.15
8061;BME280;4073;42.626;25.386;2023-07-16T10:17:51;97437.13;;;35.62;36.81
8061;BME280;4073;42.626;25.386;2023-07-16T10:20:34;97446.88;;;35.70;36.80
8061;BME280;4073;42.626;25.386;2023-07-16T10:23:20;97424.88;;;35.79;35.81
8061;BME280;4073;42.626;25.386;2023-07-16T10:25:59;97420.63;;;35.91;36.39
8061;BME280;4073;42.626;25.386;2023-07-16T10:28:24;97427.38;;;36.09;35.87
8061;BME280;4073;42.626;25.386;2023-07-16T10:30:50;97427.88;;;36.04;36.38
8061;BME280;4073;42.626;25.386;2023-07-16T10:33:17;97423.22;;;35.82;36.89
8061;BME280;4073;42.626;25.386;2023-07-16T10:35:44;97426.69;;;35.86;37.76
8061;BME280;4073;42.626;25.386;2023-07-16T10:38:10;97418.59;;;36.11;36.52
8061;BME280;4073;42.626;25.386;2023-07-16T10:40:45;97416.19;;;35.93;36.09
8061;BME280;4073;42.626;25.386;2023-07-16T10:43:12;97410.53;;;35.61;36.75
8061;BME280;4073;42.626;25.386;2023-07-16T10:45:38;97413.31;;;35.61;37.22
8061;BME280;4073;42.626;25.386;2023-07-16T10:48:04;97405.50;;;35.92;36.90
8061;BME280;4073;42.626;25.386;2023-07-16T10:50:32;97412.91;;;36.14;36.67
8061;BME280;4073;42.626;25.386;2023-07-16T10:52:59;97410.56;;;35.97;36.42
8061;BME280;4073;42.626;25.386;2023-07-16T10:55:26;97409.81;;;36.28;37.02
8061;BME280;4073;42.626;25.386;2023-07-16T10:57:52;97412.59;;;36.12;36.31
8061;BME280;4073;42.626;25.386;2023-07-16T11:00:20;97407.78;;;35.97;35.86
8061;BME280;4073;42.626;25.386;2023-07-16T11:02:46;97402.38;;;35.90;35.69
8061;BME280;4073;42.626;25.386;2023-07-16T11:05:15;97408.50;;;36.17;35.55
8061;BME280;4073;42.626;25.386;2023-07-16T11:07:45;97393.75;;;36.52;34.60
8061;BME280;4073;42.626;25.386;2023-07-16T11:10:11;97386.38;;;36.90;34.13
8061;BME280;4073;42.626;25.386;2023-07-16T11:12:37;97384.03;;;37.33;33.58
8061;BME280;4073;42.626;25.386;2023-07-16T11:15:03;97395.91;;;37.62;33.00
8061;BME280;4073;42.626;25.386;2023-07-16T11:17:28;97392.56;;;37.55;32.66
8061;BME280;4073;42.626;25.386;2023-07-16T11:19:54;97391.53;;;37.49;32.62
8061;BME280;4073;42.626;25.386;2023-07-16T11:22:27;97376.03;;;37.60;32.19
8061;BME280;4073;42.626;25.386;2023-07-16T11:24:53;97380.44;;;37.74;32.43
8061;BME280;4073;42.626;25.386;2023-07-16T11:27:24;97386.75;;;37.62;32.27
8061;BME280;4073;42.626;25.386;2023-07-16T11:30:00;97385.34;;;37.29;33.01
8061;BME280;4073;42.626;25.386;2023-07-16T11:32:33;97378.91;;;37.16;33.24
8061;BME280;4073;42.626;25.386;2023-07-16T11:35:00;97376.22;;;36.84;33.09
8061;BME280;4073;42.626;25.386;2023-07-16T11:37:28;97370.06;;;36.76;32.34
8061;BME280;4073;42.626;25.386;2023-07-16T11:39:58;97378.78;;;36.78;32.66
8061;BME280;4073;42.626;25.386;2023-07-16T11:42:35;97374.84;;;36.76;33.86
8061;BME280;4073;42.626;25.386;2023-07-16T11:45:01;97375.00;;;36.85;32.03
8061;BME280;4073;42.626;25.386;2023-07-16T11:47:27;97375.53;;;36.80;32.03
8061;BME280;4073;42.626;25.386;2023-07-16T11:49:54;97374.22;;;36.84;32.73
8061;BME280;4073;42.626;25.386;2023-07-16T11:52:21;97373.00;;;36.85;32.46
8061;BME280;4073;42.626;25.386;2023-07-16T11:54:47;97375.34;;;36.87;32.45
8061;BME280;4073;42.626;25.386;2023-07-16T11:57:12;97364.06;;;36.45;32.89
8061;BME280;4073;42.626;25.386;2023-07-16T11:59:38;97353.72;;;36.46;33.46
8061;BME280;4073;42.626;25.386;2023-07-16T12:02:03;97367.00;;;36.55;32.85
8061;BME280;4073;42.626;25.386;2023-07-16T12:04:29;97368.44;;;36.47;33.06
8061;BME280;4073;42.626;25.386;2023-07-16T12:06:54;97359.22;;;36.33;33.62
8061;BME280;4073;42.626;25.386;2023-07-16T12:09:20;97366.59;;;36.56;32.97
8061;BME280;4073;42.626;25.386;2023-07-16T12:11:45;97360.66;;;36.54;32.21
8061;BME280;4073;42.626;25.386;2023-07-16T12:14:11;97356.81;;;36.64;32.65
8061;BME280;4073;42.626;25.386;2023-07-16T12:16:38;97351.66;;;36.63;32.14
8061;BME280;4073;42.626;25.386;2023-07-16T12:19:04;97351.94;;;36.68;31.48
8061;BME280;4073;42.626;25.386;2023-07-16T12:21:30;97361.94;;;36.82;31.30
8061;BME280;4073;42.626;25.386;2023-07-16T12:23:55;97352.47;;;36.47;31.92
8061;BME280;4073;42.626;25.386;2023-07-16T12:26:21;97343.75;;;36.77;31.63
8061;BME280;4073;42.626;25.386;2023-07-16T12:28:46;97348.84;;;36.95;31.41
8061;BME280;4073;42.626;25.386;2023-07-16T12:31:12;97349.94;;;36.69;31.62
8061;BME280;4073;42.626;25.386;2023-07-16T12:33:37;97347.03;;;36.43;32.20
8061;BME280;4073;42.626;25.386;2023-07-16T12:36:03;97358.13;;;35.95;32.93
8061;BME280;4073;42.626;25.386;2023-07-16T12:38:28;97352.31;;;35.70;33.31
8061;BME280;4073;42.626;25.386;2023-07-16T12:40:54;97347.28;;;35.65;33.64
8061;BME280;4073;42.626;25.386;2023-07-16T12:43:19;97348.44;;;35.48;33.94
8061;BME280;4073;42.626;25.386;2023-07-16T12:45:45;97347.59;;;35.51;34.14
8061;BME280;4073;42.626;25.386;2023-07-16T12:48:10;97345.50;;;35.55;33.93
8061;BME280;4073;42.626;25.386;2023-07-16T12:50:35;97344.38;;;35.88;34.03
8061;BME280;4073;42.626;25.386;2023-07-16T12:53:01;97345.53;;;36.07;33.70
8061;BME280;4073;42.626;25.386;2023-07-16T12:55:26;97348.31;;;36.07;33.21
8061;BME280;4073;42.626;25.386;2023-07-16T12:57:52;97342.69;;;35.75;33.65
8061;BME280;4073;42.626;25.386;2023-07-16T13:00:17;97341.88;;;35.58;33.87
8061;BME280;4073;42.626;25.386;2023-07-16T13:02:43;97346.53;;;35.81;33.86
8061;BME280;4073;42.626;25.386;2023-07-16T13:05:08;97337.88;;;35.95;33.47
8061;BME280;4073;42.626;25.386;2023-07-16T13:07:33;97340.44;;;35.86;33.14